sensor_id;sensor_type;location;lat;lon;timestamp;pressure;altitude;pressure_sealevel;temperature;humidity
35291;BME280;21411;50.024;19.220;2022-08-18T00:01:44;98535.10;;;20.56;100.00
35291;BME280;21411;50.024;19.220;2022-08-18T00:04:14;98530.55;;;20.54;100.00
35291;BME280;21411;50.024;19.220;2022-08-18T00:06:41;98528.29;;;20.54;100.00
35291;BME280;21411;50.024;19.220;2022-08-18T00:09:09;98526.32;;;20.52;100.00
35291;BME280;21411;50.024;19.220;2022-08-18T00:11:39;98529.83;;;20.48;100.00
35291;BME280;21411;50.024;19.220;2022-08-18T00:14:08;98538.10;;;20.44;100.00
35291;BME280;21411;50.024;19.220;2022-08-18T00:16:35;98545.13;;;20.39;100.00
35291;BME280;21411;50.024;19.220;2022-08-18T00:19:02;98546.45;;;20.37;100.00
35291;BME280;21411;50.024;19.220;2022-08-18T00:21:28;98547.13;;;20.39;100.00
35291;BME280;21411;50.024;19.220;2022-08-18T00:23:55;98543.99;;;20.36;100.00
35291;BME280;21411;50.024;19.220;2022-08-18T00:26:22;98548.45;;;20.32;100.00
35291;BME280;21411;50.024;19.220;2022-08-18T00:28:48;98546.73;;;20.26;100.00
35291;BME280;21411;50.024;19.220;2022-08-18T00:31:15;98546.98;;;20.23;100.00
35291;BME280;21411;50.024;19.220;2022-08-18T00:33:41;98547.81;;;20.20;100.00
35291;BME280;21411;50.024;19.220;2022-08-18T00:36:10;98545.45;;;20.17;100.00
35291;BME280;21411;50.024;19.220;2022-08-18T00:38:37;98534.85;;;20.15;100.00
35291;BME280;21411;50.024;19.220;2022-08-18T00:41:05;98536.64;;;20.15;100.00
35291;BME280;21411;50.024;19.220;2022-08-18T00:43:38;98538.97;;;20.15;100.00
35291;BME280;21411;50.024;19.220;2022-08-18T00:46:28;98533.27;;;20.16;100.00
35291;BME280;21411;50.024;19.220;2022-08-18T00:48:56;98528.01;;;20.16;100.00
35291;BME280;21411;50.024;19.220;2022-08-18T00:54:01;98529.89;;;20.10;100.00
35291;BME280;21411;50.024;19.220;2022-08-18T00:56:37;98530.08;;;20.07;100.00
35291;BME280;21411;50.024;19.220;2022-08-18T00:59:40;98527.80;;;20.03;100.00
35291;BME280;21411;50.024;19.220;2022-08-18T01:02:02;98527.02;;;20.02;100.00
35291;BME280;21411;50.024;19.220;2022-08-18T01:05:15;98524.69;;;20.00;100.00
35291;BME280;21411;50.024;19.220;2022-08-18T01:07:45;98526.30;;;19.95;100.00
35291;BME280;21411;50.024;19.220;2022-08-18T01:10:18;98525.84;;;19.90;100.00
35291;BME280;21411;50.024;19.220;2022-08-18T01:12:48;98526.25;;;19.88;100.00
35291;BME280;21411;50.024;19.220;2022-08-18T01:15:17;98527.85;;;19.83;100.00
35291;BME280;21411;50.024;19.220;2022-08-18T01:17:45;98522.81;;;19.81;100.00
35291;BME280;21411;50.024;19.220;2022-08-18T01:20:40;98519.04;;;19.83;100.00
35291;BME280;21411;50.024;19.220;2022-08-18T01:23:28;98521.87;;;19.80;100.00
35291;BME280;21411;50.024;19.220;2022-08-18T01:25:55;98537.16;;;19.76;100.00
35291;BME280;21411;50.024;19.220;2022-08-18T01:28:27;98544.41;;;19.72;100.00
35291;BME280;21411;50.024;19.220;2022-08-18T01:30:56;98541.63;;;19.65;100.00
35291;BME280;21411;50.024;19.220;2022-08-18T01:33:25;98539.30;;;19.56;100.00
35291;BME280;21411;50.024;19.220;2022-08-18T01:35:53;98528.91;;;19.48;100.00
35291;BME280;21411;50.024;19.220;2022-08-18T01:38:21;98528.07;;;19.44;100.00
35291;BME280;21411;50.024;19.220;2022-08-18T01:40:51;98528.67;;;19.42;100.00
35291;BME280;21411;50.024;19.220;2022-08-18T01:43:20;98520.54;;;19.40;100.00
35291;BME280;21411;50.024;19.220;2022-08-18T01:45:46;98510.30;;;19.39;100.00
35291;BME280;21411;50.024;19.220;2022-08-18T01:48:14;98510.77;;;19.36;100.00
35291;BME280;21411;50.024;19.220;2022-08-18T01:50:40;98512.74;;;19.33;100.00
35291;BME280;21411;50.024;19.220;2022-08-18T01:53:10;98510.52;;;19.28;100.00
35291;BME280;21411;50.024;19.220;2022-08-18T01:55:39;98512.34;;;19.22;100.00
35291;BME280;21411;50.024;19.220;2022-08-18T01:58:10;98518.15;;;19.18;100.00
35291;BME280;21411;50.024;19.220;2022-08-18T02:00:37;98510.02;;;19.15;100.00
35291;BME280;21411;50.024;19.220;2022-08-18T02:03:08;98507.48;;;19.14;100.00
35291;BME280;21411;50.024;19.220;2022-08-18T02:05:45;98502.50;;;19.12;100.00
35291;BME280;21411;50.024;19.220;2022-08-18T02:08:13;98496.98;;;19.12;100.00
35291;BME280;21411;50.024;19.220;2022-08-18T02:10:41;98496.79;;;19.11;100.00
35291;BME280;21411;50.024;19.220;2022-08-18T02:13:08;98499.86;;;19.09;100.00
35291;BME280;21411;50.024;19.220;2022-08-18T02:15:34;98499.31;;;19.09;100.00
35291;BME280;21411;50.024;19.220;2022-08-18T02:18:01;98501.53;;;19.08;100.00
35291;BME280;21411;50.024;19.220;2022-08-18T02:20:27;98496.98;;;19.07;100.00
35291;BME280;21411;50.024;19.220;2022-08-18T02:22:54;98498.64;;;19.07;100.00
35291;BME280;21411;50.024;19.220;2022-08-18T02:25:21;98502.75;;;19.05;100.00
35291;BME280;21411;50.024;19.220;2022-08-18T02:27:48;98501.35;;;19.02;100.00
35291;BME280;21411;50.024;19.220;2022-08-18T02:30:17;98500.86;;;18.98;100.00
35291;BME280;21411;50.024;19.220;2022-08-18T02:32:44;98504.27;;;18.94;100.00
35291;BME280;21411;50.024;19.220;2022-08-18T02:35:10;98506.22;;;18.89;100.00
35291;BME280;21411;50.024;19.220;2022-08-18T02:37:39;98511.36;;;18.85;100.00
35291;BME280;21411;50.024;19.220;2022-08-18T02:40:06;98508.86;;;18.83;100.00
35291;BME280;21411;50.024;19.220;2022-08-18T02:42:33;98505.71;;;18.82;100.00
35291;BME280;21411;50.024;19.220;2022-08-18T02:44:59;98507.43;;;18.81;100.00
35291;BME280;21411;50.024;19.220;2022-08-18T02:47:26;98511.20;;;18.79;100.00
35291;BME280;21411;50.024;19.220;2022-08-18T02:49:53;98514.58;;;18.76;100.00
35291;BME280;21411;50.024;19.220;2022-08-18T02:52:19;98515.38;;;18.74;100.00
35291;BME280;21411;50.024;19.220;2022-08-18T02:54:46;98517.83;;;18.71;100.00
35291;BME280;21411;50.024;19.220;2022-08-18T02:57:13;98523.00;;;18.67;100.00
35291;BME280;21411;50.024;19.220;2022-08-18T02:59:40;98531.53;;;18.63;100.00
35291;BME280;21411;50.024;19.220;2022-08-18T03:02:08;98536.58;;;18.61;100.00
35291;BME280;21411;50.024;19.220;2022-08-18T03:04:35;98535.37;;;18.60;100.00
35291;BME280;21411;50.024;19.220;2022-08-18T03:07:04;98536.12;;;18.62;100.00
35291;BME280;21411;50.024;19.220;2022-08-18T03:09:31;98534.46;;;18.62;100.00
35291;BME280;21411;50.024;19.220;2022-08-18T03:11:59;98533.36;;;18.64;100.00
35291;BME280;21411;50.024;19.220;2022-08-18T03:14:26;98538.38;;;18.66;100.00
35291;BME280;21411;50.024;19.220;2022-08-18T03:16:53;98537.80;;;18.68;100.00
35291;BME280;21411;50.024;19.220;2022-08-18T03:19:27;98532.92;;;18.72;100.00
35291;BME280;21411;50.024;19.220;2022-08-18T03:21:56;98535.14;;;18.74;100.00
35291;BME280;21411;50.024;19.220;2022-08-18T03:24:25;98535.78;;;18.77;100.00
35291;BME280;21411;50.024;19.220;2022-08-18T03:26:53;98542.39;;;18.79;100.00
35291;BME280;21411;50.024;19.220;2022-08-18T03:29:22;98542.77;;;18.79;100.00
35291;BME280;21411;50.024;19.220;2022-08-18T03:31:49;98544.29;;;18.77;100.00
35291;BME280;21411;50.024;19.220;2022-08-18T03:34:18;98546.16;;;18.74;100.00
35291;BME280;21411;50.024;19.220;2022-08-18T03:36:47;98543.30;;;18.72;100.00
35291;BME280;21411;50.024;19.220;2022-08-18T03:39:16;98546.09;;;18.70;100.00
35291;BME280;21411;50.024;19.220;2022-08-18T03:41:44;98543.02;;;18.66;100.00
35291;BME280;21411;50.024;19.220;2022-08-18T03:44:12;98544.55;;;18.63;100.00
35291;BME280;21411;50.024;19.220;2022-08-18T03:46:41;98548.77;;;18.61;100.00
35291;BME280;21411;50.024;19.220;2022-08-18T03:49:09;98550.99;;;18.59;100.00
35291;BME280;21411;50.024;19.220;2022-08-18T03:51:36;98550.79;;;18.59;100.00
35291;BME280;21411;50.024;19.220;2022-08-18T03:54:04;98555.41;;;18.61;100.00
35291;BME280;21411;50.024;19.220;2022-08-18T03:56:34;98558.33;;;18.64;100.00
35291;BME280;21411;50.024;19.220;2022-08-18T03:59:04;98560.11;;;18.66;100.00
35291;BME280;21411;50.024;19.220;2022-08-18T04:01:33;98558.88;;;18.68;100.00
35291;BME280;21411;50.024;19.220;2022-08-18T04:04:04;98559.83;;;18.71;100.00
35291;BME280;21411;50.024;19.220;2022-08-18T04:06:32;98554.55;;;18.86;100.00
35291;BME280;21411;50.024;19.220;2022-08-18T04:09:01;98551.30;;;19.13;100.00
35291;BME280;21411;50.024;19.220;2022-08-18T04:11:31;98546.23;;;19.44;100.00
35291;BME280;21411;50.024;19.220;2022-08-18T04:13:59;98552.54;;;19.77;100.00
35291;BME280;21411;50.024;19.220;2022-08-18T04:16:27;98550.40;;;20.07;100.00
35291;BME280;21411;50.024;19.220;2022-08-18T04:18:54;98552.44;;;20.40;100.00
35291;BME280;21411;50.024;19.220;2022-08-18T04:21:29;98555.52;;;20.76;100.00
35291;BME280;21411;50.024;19.220;2022-08-18T04:23:56;98553.94;;;21.09;100.00
35291;BME280;21411;50.024;19.220;2022-08-18T04:26:28;98552.31;;;21.37;100.00
35291;BME280;21411;50.024;19.220;2022-08-18T04:28:55;98551.29;;;21.68;100.00
35291;BME280;21411;50.024;19.220;2022-08-18T04:31:22;98549.67;;;21.97;100.00
35291;BME280;21411;50.024;19.220;2022-08-18T04:33:50;98547.79;;;22.27;100.00
35291;BME280;21411;50.024;19.220;2022-08-18T04:36:16;98547.07;;;22.39;100.00
35291;BME280;21411;50.024;19.220;2022-08-18T04:38:43;98548.73;;;22.45;100.00
35291;BME280;21411;50.024;19.220;2022-08-18T04:41:11;98549.35;;;22.57;100.00
35291;BME280;21411;50.024;19.220;2022-08-18T04:43:39;98547.98;;;22.80;100.00
35291;BME280;21411;50.024;19.220;2022-08-18T04:46:06;98555.54;;;23.04;100.00
35291;BME280;21411;50.024;19.220;2022-08-18T04:48:38;98552.89;;;23.23;100.00
35291;BME280;21411;50.024;19.220;2022-08-18T04:51:11;98548.84;;;23.49;100.00
35291;BME280;21411;50.024;19.220;2022-08-18T04:53:39;98547.66;;;23.67;100.00
35291;BME280;21411;50.024;19.220;2022-08-18T04:58:56;98550.38;;;24.12;100.00
35291;BME280;21411;50.024;19.220;2022-08-18T05:01:29;98552.08;;;24.32;100.00
35291;BME280;21411;50.024;19.220;2022-08-18T05:03:57;98552.98;;;24.59;100.00
35291;BME280;21411;50.024;19.220;2022-08-18T05:06:26;98548.38;;;24.88;100.00
35291;BME280;21411;50.024;19.220;2022-08-18T05:08:57;98549.70;;;25.13;100.00
35291;BME280;21411;50.024;19.220;2022-08-18T05:11:27;98548.20;;;25.31;100.00
35291;BME280;21411;50.024;19.220;2022-08-18T05:13:55;98547.65;;;25.52;100.00
35291;BME280;21411;50.024;19.220;2022-08-18T05:16:26;98544.33;;;25.73;100.00
35291;BME280;21411;50.024;19.220;2022-08-18T05:18:53;98549.00;;;25.89;100.00
35291;BME280;21411;50.024;19.220;2022-08-18T05:21:21;98551.51;;;26.01;100.00
35291;BME280;21411;50.024;19.220;2022-08-18T05:23:48;98548.16;;;26.16;100.00
35291;BME280;21411;50.024;19.220;2022-08-18T05:26:17;98548.44;;;26.36;100.00
35291;BME280;21411;50.024;19.220;2022-08-18T05:28:45;98557.81;;;26.52;100.00
35291;BME280;21411;50.024;19.220;2022-08-18T05:31:18;98560.28;;;26.68;100.00
35291;BME280;21411;50.024;19.220;2022-08-18T05:33:46;98558.56;;;26.84;100.00
35291;BME280;21411;50.024;19.220;2022-08-18T05:39:16;98565.67;;;27.14;100.00
35291;BME280;21411;50.024;19.220;2022-08-18T05:42:10;98566.90;;;27.24;100.00
35291;BME280;21411;50.024;19.220;2022-08-18T05:44:43;98565.45;;;27.31;100.00
35291;BME280;21411;50.024;19.220;2022-08-18T05:47:25;98561.69;;;27.33;100.00
35291;BME280;21411;50.024;19.220;2022-08-18T05:50:01;98558.35;;;27.46;100.00
35291;BME280;21411;50.024;19.220;2022-08-18T05:55:26;98561.05;;;27.63;100.00
35291;BME280;21411;50.024;19.220;2022-08-18T05:58:36;98566.76;;;27.70;100.00
35291;BME280;21411;50.024;19.220;2022-08-18T06:01:26;98564.86;;;27.93;100.00
35291;BME280;21411;50.024;19.220;2022-08-18T06:04:05;98565.91;;;28.05;100.00
35291;BME280;21411;50.024;19.220;2022-08-18T06:06:35;98565.27;;;28.12;100.00
35291;BME280;21411;50.024;19.220;2022-08-18T06:11:31;98568.61;;;28.26;100.00
35291;BME280;21411;50.024;19.220;2022-08-18T06:13:58;98572.15;;;28.22;100.00
35291;BME280;21411;50.024;19.220;2022-08-18T06:30:15;98587.09;;;28.24;100.00
35291;BME280;21411;50.024;19.220;2022-08-18T06:41:17;98595.14;;;28.16;100.00
35291;BME280;21411;50.024;19.220;2022-08-18T06:46:46;98594.04;;;27.96;100.00
35291;BME280;21411;50.024;19.220;2022-08-18T06:51:49;98593.12;;;27.80;100.00
35291;BME280;21411;50.024;19.220;2022-08-18T06:56:49;98594.45;;;27.64;100.00
35291;BME280;21411;50.024;19.220;2022-08-18T07:01:47;98591.04;;;27.36;100.00
35291;BME280;21411;50.024;19.220;2022-08-18T07:04:41;98585.37;;;27.17;100.00
35291;BME280;21411;50.024;19.220;2022-08-18T07:07:18;98589.40;;;27.08;100.00
35291;BME280;21411;50.024;19.220;2022-08-18T07:09:46;98590.28;;;26.84;100.00
35291;BME280;21411;50.024;19.220;2022-08-18T07:12:20;98592.61;;;26.54;100.00
35291;BME280;21411;50.024;19.220;2022-08-18T07:14:52;98591.20;;;26.27;100.00
35291;BME280;21411;50.024;19.220;2022-08-18T07:20:05;98590.48;;;26.33;100.00
35291;BME280;21411;50.024;19.220;2022-08-18T07:23:19;98589.92;;;26.35;100.00
35291;BME280;21411;50.024;19.220;2022-08-18T07:25:44;98588.48;;;26.26;100.00
35291;BME280;21411;50.024;19.220;2022-08-18T07:28:29;98586.67;;;26.23;100.00
35291;BME280;21411;50.024;19.220;2022-08-18T07:33:58;98581.58;;;26.28;100.00
35291;BME280;21411;50.024;19.220;2022-08-18T07:36:31;98577.02;;;26.28;100.00
35291;BME280;21411;50.024;19.220;2022-08-18T07:41:53;98570.81;;;26.13;100.00
35291;BME280;21411;50.024;19.220;2022-08-18T07:44:32;98570.35;;;26.13;100.00
35291;BME280;21411;50.024;19.220;2022-08-18T07:47:06;98565.73;;;26.14;100.00
35291;BME280;21411;50.024;19.220;2022-08-18T07:49:38;98570.70;;;26.25;100.00
35291;BME280;21411;50.024;19.220;2022-08-18T07:52:15;98567.81;;;26.37;100.00
35291;BME280;21411;50.024;19.220;2022-08-18T07:55:26;98567.86;;;26.42;100.00
35291;BME280;21411;50.024;19.220;2022-08-18T07:58:05;98573.41;;;26.44;100.00
35291;BME280;21411;50.024;19.220;2022-08-18T08:14:51;98583.80;;;27.19;100.00
35291;BME280;21411;50.024;19.220;2022-08-18T08:17:30;98586.08;;;27.32;100.00
35291;BME280;21411;50.024;19.220;2022-08-18T08:28:41;98599.09;;;27.56;100.00
35291;BME280;21411;50.024;19.220;2022-08-18T08:31:15;98606.73;;;27.69;100.00
35291;BME280;21411;50.024;19.220;2022-08-18T08:33:48;98606.11;;;27.69;100.00
35291;BME280;21411;50.024;19.220;2022-08-18T08:36:27;98615.38;;;27.75;100.00
35291;BME280;21411;50.024;19.220;2022-08-18T08:39:02;98617.73;;;27.81;100.00
35291;BME280;21411;50.024;19.220;2022-08-18T08:41:46;98616.98;;;27.88;100.00
35291;BME280;21411;50.024;19.220;2022-08-18T08:44:26;98614.43;;;28.00;100.00
35291;BME280;21411;50.024;19.220;2022-08-18T08:47:01;98613.91;;;28.16;100.00
35291;BME280;21411;50.024;19.220;2022-08-18T08:52:16;98619.48;;;28.38;100.00
35291;BME280;21411;50.024;19.220;2022-08-18T08:55:02;98622.64;;;28.50;100.00
35291;BME280;21411;50.024;19.220;2022-08-18T08:57:36;98622.84;;;28.49;100.00
35291;BME280;21411;50.024;19.220;2022-08-18T09:00:07;98616.44;;;28.49;100.00
35291;BME280;21411;50.024;19.220;2022-08-18T09:05:35;98609.37;;;28.50;100.00
35291;BME280;21411;50.024;19.220;2022-08-18T09:11:17;98594.11;;;28.67;100.00
35291;BME280;21411;50.024;19.220;2022-08-18T09:13:54;98589.98;;;28.73;100.00
35291;BME280;21411;50.024;19.220;2022-08-18T09:19:55;98591.55;;;29.10;100.00
35291;BME280;21411;50.024;19.220;2022-08-18T09:22:38;98594.34;;;29.22;100.00
35291;BME280;21411;50.024;19.220;2022-08-18T09:25:51;98590.35;;;29.24;100.00
35291;BME280;21411;50.024;19.220;2022-08-18T09:39:07;98590.17;;;29.64;100.00
35291;BME280;21411;50.024;19.220;2022-08-18T09:42:01;98585.09;;;29.52;100.00
35291;BME280;21411;50.024;19.220;2022-08-18T09:55:34;98592.41;;;29.95;100.00
35291;BME280;21411;50.024;19.220;2022-08-18T10:06:41;98595.38;;;29.89;100.00
35291;BME280;21411;50.024;19.220;2022-08-18T10:09:25;98589.35;;;29.86;100.00
35291;BME280;21411;50.024;19.220;2022-08-18T10:12:09;98584.08;;;29.85;100.00
35291;BME280;21411;50.024;19.220;2022-08-18T10:17:36;98578.45;;;30.10;100.00
35291;BME280;21411;50.024;19.220;2022-08-18T10:20:18;98574.42;;;30.22;100.00
35291;BME280;21411;50.024;19.220;2022-08-18T10:22:49;98575.36;;;30.30;100.00
35291;BME280;21411;50.024;19.220;2022-08-18T10:25:35;98572.23;;;30.36;100.00
35291;BME280;21411;50.024;19.220;2022-08-18T10:28:05;98571.24;;;30.46;100.00
35291;BME280;21411;50.024;19.220;2022-08-18T10:33:05;98555.98;;;30.66;100.00
35291;BME280;21411;50.024;19.220;2022-08-18T10:40:39;98550.67;;;30.46;100.00
35291;BME280;21411;50.024;19.220;2022-08-18T10:43:29;98550.68;;;30.46;100.00
35291;BME280;21411;50.024;19.220;2022-08-18T10:45:58;98544.21;;;30.52;100.00
35291;BME280;21411;50.024;19.220;2022-08-18T10:48:30;98536.41;;;30.60;100.00
35291;BME280;21411;50.024;19.220;2022-08-18T10:53:58;98539.44;;;30.53;100.00
35291;BME280;21411;50.024;19.220;2022-08-18T10:56:34;98537.21;;;30.46;100.00
35291;BME280;21411;50.024;19.220;2022-08-18T11:02:03;98522.84;;;30.64;100.00
35291;BME280;21411;50.024;19.220;2022-08-18T11:04:37;98523.91;;;30.71;100.00
35291;BME280;21411;50.024;19.220;2022-08-18T11:07:13;98527.27;;;30.68;100.00
35291;BME280;21411;50.024;19.220;2022-08-18T11:09:42;98525.73;;;30.71;100.00
35291;BME280;21411;50.024;19.220;2022-08-18T11:12:11;98525.33;;;30.76;100.00
35291;BME280;21411;50.024;19.220;2022-08-18T11:20:28;98523.11;;;30.97;100.00
35291;BME280;21411;50.024;19.220;2022-08-18T11:22:59;98517.29;;;30.89;100.00
35291;BME280;21411;50.024;19.220;2022-08-18T11:25:35;98513.20;;;30.94;100.00
35291;BME280;21411;50.024;19.220;2022-08-18T11:28:14;98508.07;;;30.84;100.00
35291;BME280;21411;50.024;19.220;2022-08-18T11:30:42;98509.91;;;30.78;100.00
35291;BME280;21411;50.024;19.220;2022-08-18T11:33:15;98505.80;;;30.77;100.00
35291;BME280;21411;50.024;19.220;2022-08-18T11:35:48;98506.71;;;30.75;100.00
35291;BME280;21411;50.024;19.220;2022-08-18T11:38:16;98503.03;;;30.76;100.00
35291;BME280;21411;50.024;19.220;2022-08-18T11:40:46;98498.27;;;30.81;100.00
35291;BME280;21411;50.024;19.220;2022-08-18T11:43:23;98494.39;;;30.89;100.00
35291;BME280;21411;50.024;19.220;2022-08-18T11:45:57;98487.77;;;30.96;100.00
35291;BME280;21411;50.024;19.220;2022-08-18T11:53:33;98479.29;;;31.08;100.00
35291;BME280;21411;50.024;19.220;2022-08-18T11:59:05;98466.93;;;31.13;100.00
35291;BME280;21411;50.024;19.220;2022-08-18T12:06:37;98469.53;;;30.92;100.00
35291;BME280;21411;50.024;19.220;2022-08-18T12:09:17;98472.53;;;30.91;100.00
35291;BME280;21411;50.024;19.220;2022-08-18T12:12:02;98467.41;;;30.85;100.00
35291;BME280;21411;50.024;19.220;2022-08-18T12:14:33;98466.52;;;30.81;100.00
35291;BME280;21411;50.024;19.220;2022-08-18T12:17:15;98461.09;;;30.90;100.00
35291;BME280;21411;50.024;19.220;2022-08-18T12:19:41;98457.40;;;30.99;100.00
35291;BME280;21411;50.024;19.220;2022-08-18T12:22:24;98454.06;;;31.11;100.00
35291;BME280;21411;50.024;19.220;2022-08-18T12:24:51;98449.25;;;31.22;100.00
35291;BME280;21411;50.024;19.220;2022-08-18T12:27:21;98444.48;;;31.30;100.00
35291;BME280;21411;50.024;19.220;2022-08-18T12:29:50;98447.31;;;31.35;100.00
35291;BME280;21411;50.024;19.220;2022-08-18T12:32:19;98440.92;;;31.38;100.00
35291;BME280;21411;50.024;19.220;2022-08-18T12:34:47;98446.66;;;31.41;100.00
35291;BME280;21411;50.024;19.220;2022-08-18T12:37:19;98443.33;;;31.42;100.00
35291;BME280;21411;50.024;19.220;2022-08-18T12:39:47;98440.23;;;31.45;100.00
35291;BME280;21411;50.024;19.220;2022-08-18T12:42:14;98444.71;;;31.43;100.00
35291;BME280;21411;50.024;19.220;2022-08-18T12:44:40;98438.66;;;31.35;100.00
35291;BME280;21411;50.024;19.220;2022-08-18T12:47:17;98438.38;;;31.25;100.00
35291;BME280;21411;50.024;19.220;2022-08-18T12:49:44;98431.98;;;31.24;100.00
35291;BME280;21411;50.024;19.220;2022-08-18T12:52:10;98425.23;;;31.29;100.00
35291;BME280;21411;50.024;19.220;2022-08-18T12:54:37;98429.90;;;31.35;100.00
35291;BME280;21411;50.024;19.220;2022-08-18T12:57:08;98428.98;;;31.38;100.00
35291;BME280;21411;50.024;19.220;2022-08-18T12:59:35;98430.45;;;31.40;100.00
35291;BME280;21411;50.024;19.220;2022-08-18T13:02:02;98427.98;;;31.40;100.00
35291;BME280;21411;50.024;19.220;2022-08-18T13:04:28;98431.30;;;31.38;100.00
35291;BME280;21411;50.024;19.220;2022-08-18T13:06:57;98431.64;;;31.27;100.00
35291;BME280;21411;50.024;19.220;2022-08-18T13:09:24;98434.98;;;31.19;99.78
35291;BME280;21411;50.024;19.220;2022-08-18T13:11:51;98437.59;;;31.13;99.96
35291;BME280;21411;50.024;19.220;2022-08-18T13:14:18;98446.05;;;31.10;99.89
35291;BME280;21411;50.024;19.220;2022-08-18T13:16:45;98444.98;;;31.07;99.80
35291;BME280;21411;50.024;19.220;2022-08-18T13:19:13;98448.35;;;31.09;100.00
35291;BME280;21411;50.024;19.220;2022-08-18T13:21:40;98445.17;;;31.16;100.00
35291;BME280;21411;50.024;19.220;2022-08-18T13:24:08;98453.46;;;31.24;100.00
35291;BME280;21411;50.024;19.220;2022-08-18T13:26:37;98461.73;;;31.28;100.00
35291;BME280;21411;50.024;19.220;2022-08-18T13:29:05;98461.86;;;31.30;99.50
35291;BME280;21411;50.024;19.220;2022-08-18T13:31:32;98468.17;;;31.24;98.43
35291;BME280;21411;50.024;19.220;2022-08-18T13:33:59;98470.34;;;31.19;98.14
35291;BME280;21411;50.024;19.220;2022-08-18T13:36:27;98475.96;;;31.20;98.63
35291;BME280;21411;50.024;19.220;2022-08-18T13:39:18;98475.23;;;31.22;98.95
35291;BME280;21411;50.024;19.220;2022-08-18T13:41:48;98467.52;;;31.29;98.73
35291;BME280;21411;50.024;19.220;2022-08-18T13:44:15;98474.88;;;31.37;99.38
35291;BME280;21411;50.024;19.220;2022-08-18T13:46:45;98472.37;;;31.47;99.71
35291;BME280;21411;50.024;19.220;2022-08-18T13:49:16;98464.52;;;31.55;99.13
35291;BME280;21411;50.024;19.220;2022-08-18T13:51:44;98460.08;;;31.51;96.34
35291;BME280;21411;50.024;19.220;2022-08-18T13:54:17;98455.70;;;31.42;95.91
35291;BME280;21411;50.024;19.220;2022-08-18T13:56:45;98456.00;;;31.40;96.11
35291;BME280;21411;50.024;19.220;2022-08-18T13:59:11;98457.30;;;31.38;94.45
35291;BME280;21411;50.024;19.220;2022-08-18T14:01:38;98461.71;;;31.30;91.39
35291;BME280;21411;50.024;19.220;2022-08-18T14:04:06;98460.44;;;31.26;92.36
35291;BME280;21411;50.024;19.220;2022-08-18T14:06:33;98460.95;;;31.27;92.08
35291;BME280;21411;50.024;19.220;2022-08-18T14:09:00;98461.48;;;31.26;92.40
35291;BME280;21411;50.024;19.220;2022-08-18T14:11:31;98455.80;;;31.33;92.61
35291;BME280;21411;50.024;19.220;2022-08-18T14:14:00;98445.23;;;31.34;89.34
35291;BME280;21411;50.024;19.220;2022-08-18T14:16:27;98451.27;;;31.28;86.88
35291;BME280;21411;50.024;19.220;2022-08-18T14:18:53;98451.75;;;31.21;86.58
35291;BME280;21411;50.024;19.220;2022-08-18T14:21:45;98454.75;;;31.09;85.38
35291;BME280;21411;50.024;19.220;2022-08-18T14:24:31;98458.39;;;31.03;85.46
35291;BME280;21411;50.024;19.220;2022-08-18T14:27:23;98456.09;;;31.06;85.10
35291;BME280;21411;50.024;19.220;2022-08-18T14:29:50;98456.25;;;31.10;83.96
35291;BME280;21411;50.024;19.220;2022-08-18T14:32:19;98450.33;;;31.09;82.75
35291;BME280;21411;50.024;19.220;2022-08-18T14:34:45;98438.48;;;31.04;81.69
35291;BME280;21411;50.024;19.220;2022-08-18T14:37:13;98435.30;;;31.01;80.42
35291;BME280;21411;50.024;19.220;2022-08-18T14:39:40;98431.41;;;30.96;79.58
35291;BME280;21411;50.024;19.220;2022-08-18T14:42:07;98429.14;;;30.93;80.00
35291;BME280;21411;50.024;19.220;2022-08-18T14:44:33;98425.36;;;30.93;80.34
35291;BME280;21411;50.024;19.220;2022-08-18T14:47:00;98418.88;;;31.00;81.14
35291;BME280;21411;50.024;19.220;2022-08-18T14:49:27;98416.00;;;31.09;80.38
35291;BME280;21411;50.024;19.220;2022-08-18T14:52:00;98416.41;;;31.15;80.18
35291;BME280;21411;50.024;19.220;2022-08-18T14:54:28;98424.85;;;31.16;79.05
35291;BME280;21411;50.024;19.220;2022-08-18T14:56:55;98428.22;;;31.13;79.63
35291;BME280;21411;50.024;19.220;2022-08-18T14:59:21;98429.76;;;31.09;79.71
35291;BME280;21411;50.024;19.220;2022-08-18T15:01:50;98421.83;;;30.99;79.66
35291;BME280;21411;50.024;19.220;2022-08-18T15:04:17;98423.21;;;30.96;80.02
35291;BME280;21411;50.024;19.220;2022-08-18T15:06:43;98426.52;;;30.90;79.04
35291;BME280;21411;50.024;19.220;2022-08-18T15:09:09;98422.04;;;30.86;79.78
35291;BME280;21411;50.024;19.220;2022-08-18T15:11:36;98423.73;;;30.89;80.35
35291;BME280;21411;50.024;19.220;2022-08-18T15:14:02;98427.68;;;30.91;79.99
35291;BME280;21411;50.024;19.220;2022-08-18T15:16:29;98429.55;;;30.91;80.56
35291;BME280;21411;50.024;19.220;2022-08-18T15:19:00;98436.95;;;30.92;80.53
35291;BME280;21411;50.024;19.220;2022-08-18T15:21:28;98440.13;;;30.92;80.88
35291;BME280;21411;50.024;19.220;2022-08-18T15:24:14;98443.40;;;30.90;80.87
35291;BME280;21411;50.024;19.220;2022-08-18T15:27:00;98443.61;;;30.86;81.03
35291;BME280;21411;50.024;19.220;2022-08-18T15:29:29;98438.83;;;30.86;80.89
35291;BME280;21411;50.024;19.220;2022-08-18T15:31:57;98437.45;;;30.83;80.87
35291;BME280;21411;50.024;19.220;2022-08-18T15:34:23;98441.05;;;30.83;81.07
35291;BME280;21411;50.024;19.220;2022-08-18T15:36:50;98441.09;;;30.83;81.37
35291;BME280;21411;50.024;19.220;2022-08-18T15:39:18;98439.62;;;30.81;80.20
35291;BME280;21411;50.024;19.220;2022-08-18T15:41:45;98441.23;;;30.78;79.20